createdAt,value
2023-04-18T00:00:03.754Z,8.31
2023-04-18T00:01:03.757Z,8.25
2023-04-18T00:02:03.789Z,8.19
2023-04-18T00:03:04.476Z,8.19
2023-04-18T00:04:03.744Z,8.19
2023-04-18T00:05:03.765Z,8.12
2023-04-18T00:06:03.603Z,8.25
2023-04-18T00:07:03.664Z,8.44
2023-04-18T00:08:03.507Z,8.44
2023-04-18T00:09:03.734Z,8.38
2023-04-18T00:10:03.910Z,8.44
2023-04-18T00:11:03.838Z,8.31
2023-04-18T00:12:03.916Z,8.25
2023-04-18T00:13:03.829Z,8.19
2023-04-18T00:14:03.892Z,8.12
2023-04-18T00:15:03.912Z,8.25
2023-04-18T00:16:03.826Z,8.31
2023-04-18T00:17:03.864Z,8.31
2023-04-18T00:18:03.933Z,8.31
2023-04-18T00:19:03.837Z,8.12
2023-04-18T00:20:03.829Z,8.12
2023-04-18T00:21:03.827Z,8.06
2023-04-18T00:22:03.830Z,8.00
2023-04-18T00:23:03.753Z,8.00
2023-04-18T00:24:03.602Z,8.06
2023-04-18T00:25:03.594Z,8.06
2023-04-18T00:26:03.446Z,8.12
2023-04-18T00:27:03.517Z,8.19
2023-04-18T00:28:03.510Z,8.19
2023-04-18T00:29:03.609Z,8.19
2023-04-18T00:30:03.595Z,8.25
2023-04-18T00:31:03.669Z,8.25
2023-04-18T00:32:03.520Z,8.19
2023-04-18T00:33:03.478Z,8.12
2023-04-18T00:34:03.510Z,8.25
2023-04-18T00:35:04.464Z,8.19
2023-04-18T00:36:04.485Z,8.38
2023-04-18T00:37:04.471Z,8.31
2023-04-18T00:38:04.396Z,8.19
2023-04-18T00:39:03.550Z,8.12
2023-04-18T00:40:03.583Z,8.00
2023-04-18T00:41:03.589Z,8.19
2023-04-18T00:42:03.591Z,8.25
2023-04-18T00:43:03.623Z,8.31
2023-04-18T00:44:03.672Z,8.31
2023-04-18T00:45:03.580Z,8.44
2023-04-18T00:46:03.741Z,8.50
2023-04-18T00:47:03.579Z,8.50
2023-04-18T00:48:03.674Z,8.31
2023-04-18T00:49:03.709Z,8.25
2023-04-18T00:50:03.592Z,8.12
2023-04-18T00:51:03.597Z,8.12
2023-04-18T00:52:03.519Z,8.06
2023-04-18T00:53:03.603Z,8.00
2023-04-18T00:54:04.512Z,8.06
2023-04-18T00:55:04.383Z,7.94
2023-04-18T00:56:04.392Z,7.94
2023-04-18T00:57:04.408Z,8.00
2023-04-18T00:58:04.314Z,8.12
2023-04-18T00:59:04.393Z,8.12
2023-04-18T01:00:04.323Z,8.19
2023-04-18T01:01:04.433Z,8.12
2023-04-18T01:02:04.473Z,8.12
2023-04-18T01:03:04.502Z,8.19
2023-04-18T01:04:04.375Z,8.19
2023-04-18T01:05:04.473Z,8.19
2023-04-18T01:06:04.466Z,8.19
2023-04-18T01:07:04.395Z,8.19
2023-04-18T01:08:04.319Z,8.12
2023-04-18T01:09:04.330Z,8.06
2023-04-18T01:10:04.338Z,8.00
2023-04-18T01:11:04.308Z,8.00
2023-04-18T01:12:04.298Z,8.00
2023-04-18T01:13:04.335Z,7.94
2023-04-18T01:14:04.395Z,7.88
2023-04-18T01:15:04.385Z,7.88
2023-04-18T01:16:04.436Z,7.94
2023-04-18T01:17:04.398Z,7.94
2023-04-18T01:18:04.365Z,7.88
2023-04-18T01:19:04.307Z,7.94
2023-04-18T01:20:04.275Z,7.88
2023-04-18T01:21:04.386Z,8.00
2023-04-18T01:22:04.307Z,8.06
2023-04-18T01:23:04.312Z,7.94
2023-04-18T01:24:04.470Z,7.94
2023-04-18T01:25:04.379Z,7.94
2023-04-18T01:26:03.514Z,7.94
2023-04-18T01:27:04.477Z,8.06
2023-04-18T01:28:04.475Z,8.19
2023-04-18T01:29:04.391Z,8.19
2023-04-18T01:30:03.514Z,8.19
2023-04-18T01:31:04.489Z,8.25
2023-04-18T01:32:04.387Z,8.19
2023-04-18T01:33:04.426Z,8.12
2023-04-18T01:34:04.473Z,8.12
2023-04-18T01:35:04.470Z,8.00
2023-04-18T01:36:04.405Z,7.94
2023-04-18T01:37:04.475Z,7.94
2023-04-18T01:38:04.394Z,7.88
2023-04-18T01:39:04.393Z,7.81
2023-04-18T01:40:03.541Z,7.88
2023-04-18T01:41:03.512Z,7.88
2023-04-18T01:42:03.594Z,7.94
2023-04-18T01:43:03.679Z,8.00
2023-04-18T01:44:03.626Z,8.06
2023-04-18T01:45:03.585Z,8.19
2023-04-18T01:46:03.513Z,8.12
2023-04-18T01:47:03.600Z,8.06
2023-04-18T01:48:03.510Z,7.94
2023-04-18T01:49:03.511Z,7.88
2023-04-18T01:50:04.499Z,7.88
2023-04-18T01:51:03.518Z,7.88
2023-04-18T01:52:04.466Z,7.81
2023-04-18T01:53:04.387Z,7.94
2023-04-18T01:54:03.520Z,8.00
2023-04-18T01:55:03.516Z,8.12
2023-04-18T01:56:03.607Z,8.19
2023-04-18T01:57:03.522Z,8.19
2023-04-18T01:58:03.513Z,8.12
2023-04-18T01:59:03.546Z,8.12
2023-04-18T02:00:03.523Z,8.12
2023-04-18T02:01:03.547Z,8.06
2023-04-18T02:02:03.752Z,8.12
2023-04-18T02:03:03.688Z,8.12
2023-04-18T02:04:03.665Z,8.12
2023-04-18T02:05:03.681Z,8.06
2023-04-18T02:06:03.682Z,8.12
2023-04-18T02:07:03.694Z,8.19
2023-04-18T02:08:03.694Z,8.25
2023-04-18T02:09:03.937Z,8.19
2023-04-18T02:10:03.829Z,8.12
2023-04-18T02:11:03.910Z,8.31
2023-04-18T02:12:03.908Z,8.31
2023-04-18T02:13:03.841Z,8.44
2023-04-18T02:14:04.001Z,8.44
2023-04-18T02:15:03.898Z,8.31
2023-04-18T02:16:03.948Z,8.31
2023-04-18T02:17:03.993Z,8.38
2023-04-18T02:18:04.036Z,8.25
2023-04-18T02:19:03.910Z,8.25
2023-04-18T02:20:03.983Z,8.25
2023-04-18T02:21:04.014Z,8.12
2023-04-18T02:22:04.096Z,8.06
2023-04-18T02:23:04.154Z,8.06
2023-04-18T02:24:04.061Z,8.06
2023-04-18T02:25:04.154Z,8.12
2023-04-18T02:26:04.068Z,8.06
2023-04-18T02:27:04.296Z,7.94
2023-04-18T02:28:04.158Z,8.12
2023-04-18T02:29:04.158Z,8.00
2023-04-18T02:30:04.178Z,8.00
2023-04-18T02:31:04.153Z,8.19
2023-04-18T02:32:04.356Z,8.25
2023-04-18T02:33:04.300Z,8.44
2023-04-18T02:34:04.313Z,8.44
2023-04-18T02:35:04.393Z,8.50
2023-04-18T02:36:04.327Z,8.56
2023-04-18T02:37:04.314Z,8.44
2023-04-18T02:38:04.310Z,8.31
2023-04-18T02:39:04.397Z,8.25
2023-04-18T02:40:04.398Z,8.19
2023-04-18T02:41:04.312Z,8.06
2023-04-18T02:42:04.390Z,7.94
2023-04-18T02:43:04.406Z,8.00
2023-04-18T02:44:04.418Z,8.00
2023-04-18T02:45:04.398Z,8.12
2023-04-18T02:46:04.375Z,8.06
2023-04-18T02:47:04.403Z,8.06
2023-04-18T02:48:04.257Z,8.06
2023-04-18T02:49:04.388Z,8.06
2023-04-18T02:50:04.241Z,8.06
2023-04-18T02:51:04.388Z,8.19
2023-04-18T02:52:04.314Z,8.25
2023-04-18T02:53:04.296Z,8.25
2023-04-18T02:54:04.222Z,8.25
2023-04-18T02:55:04.242Z,8.31
2023-04-18T02:56:04.156Z,8.38
2023-04-18T02:57:04.230Z,8.44
2023-04-18T02:58:04.150Z,8.31
2023-04-18T02:59:04.178Z,8.25
2023-04-18T03:00:04.164Z,8.31
2023-04-18T03:01:04.079Z,8.25
2023-04-18T03:02:04.097Z,8.12
2023-04-18T03:03:04.114Z,8.25
2023-04-18T03:04:03.918Z,8.44
2023-04-18T03:05:04.006Z,8.44
2023-04-18T03:06:03.911Z,8.38
2023-04-18T03:07:03.912Z,8.25
2023-04-18T03:08:03.824Z,8.25
2023-04-18T03:09:03.842Z,8.31
2023-04-18T03:10:03.818Z,8.25
2023-04-18T03:11:03.907Z,8.19
2023-04-18T03:12:03.999Z,8.25
2023-04-18T03:13:03.903Z,8.12
2023-04-18T03:14:04.063Z,8.19
2023-04-18T03:15:04.060Z,8.25
2023-04-18T03:16:04.104Z,8.25
2023-04-18T03:17:04.073Z,8.31
2023-04-18T03:18:04.042Z,8.38
2023-04-18T03:19:04.002Z,8.44
2023-04-18T03:20:03.994Z,8.44
2023-04-18T03:21:04.083Z,8.56
2023-04-18T03:22:03.978Z,8.56
2023-04-18T03:23:04.070Z,8.50
2023-04-18T03:24:04.184Z,8.50
2023-04-18T03:25:04.074Z,8.50
2023-04-18T03:26:04.072Z,8.56
2023-04-18T03:27:04.151Z,8.50
2023-04-18T03:28:04.152Z,8.50
2023-04-18T03:29:04.159Z,8.50
2023-04-18T03:30:04.154Z,8.56
2023-04-18T03:31:04.102Z,8.44
2023-04-18T03:32:04.236Z,8.44
2023-04-18T03:33:04.223Z,8.38
2023-04-18T03:34:04.070Z,8.44
2023-04-18T03:35:04.155Z,8.31
2023-04-18T03:36:04.058Z,8.31
2023-04-18T03:37:04.153Z,8.44
2023-04-18T03:38:04.161Z,8.56
2023-04-18T03:39:04.162Z,8.62
2023-04-18T03:40:04.068Z,8.69
2023-04-18T03:41:04.148Z,8.69
2023-04-18T03:42:04.065Z,8.62
2023-04-18T03:43:04.066Z,8.69
2023-04-18T03:44:04.153Z,8.56
2023-04-18T03:45:04.054Z,8.44
2023-04-18T03:46:04.117Z,8.44
2023-04-18T03:47:04.074Z,8.38
2023-04-18T03:48:04.124Z,8.31
2023-04-18T03:49:03.986Z,8.38
2023-04-18T03:50:04.071Z,8.31
2023-04-18T03:51:04.138Z,8.25
2023-04-18T03:52:04.222Z,8.25
2023-04-18T03:53:04.160Z,8.25
2023-04-18T03:54:04.226Z,8.31
2023-04-18T03:55:04.136Z,8.25
2023-04-18T03:56:04.312Z,8.25
2023-04-18T03:57:04.227Z,8.31
2023-04-18T03:58:04.315Z,8.31
2023-04-18T03:59:04.257Z,8.44
2023-04-18T04:00:04.311Z,8.38
2023-04-18T04:01:04.249Z,8.44
2023-04-18T04:02:04.294Z,8.44
2023-04-18T04:03:04.422Z,8.56
2023-04-18T04:04:04.254Z,8.62
2023-04-18T04:05:04.227Z,8.56
2023-04-18T04:06:04.250Z,8.75
2023-04-18T04:07:04.231Z,8.69
2023-04-18T04:08:04.231Z,8.62
2023-04-18T04:09:04.316Z,8.56
2023-04-18T04:10:04.325Z,8.50
2023-04-18T04:11:04.192Z,8.56
2023-04-18T04:12:04.286Z,8.50
2023-04-18T04:13:04.242Z,8.50
2023-04-18T04:14:04.157Z,8.44
2023-04-18T04:15:04.174Z,8.38
2023-04-18T04:16:04.192Z,8.38
2023-04-18T04:17:04.076Z,8.31
2023-04-18T04:18:04.113Z,8.25
2023-04-18T04:19:04.005Z,8.25
2023-04-18T04:20:04.069Z,8.31
2023-04-18T04:21:04.003Z,8.38
2023-04-18T04:22:04.009Z,8.44
2023-04-18T04:23:03.991Z,8.38
2023-04-18T04:24:03.923Z,8.31
2023-04-18T04:25:04.248Z,8.31
2023-04-18T04:26:04.160Z,8.25
2023-04-18T04:27:04.244Z,8.31
2023-04-18T04:28:04.338Z,8.38
2023-04-18T04:29:04.232Z,8.44
2023-04-18T04:30:04.223Z,8.31
2023-04-18T04:31:04.147Z,8.25
2023-04-18T04:32:04.303Z,8.31
2023-04-18T04:33:04.137Z,9.00
2023-04-18T04:34:04.076Z,8.88
2023-04-18T04:35:04.151Z,8.75
2023-04-18T04:36:04.001Z,8.75
2023-04-18T04:37:04.152Z,8.75
2023-04-18T04:38:04.082Z,8.69
2023-04-18T04:39:04.081Z,8.81
2023-04-18T04:40:03.995Z,8.69
2023-04-18T04:41:04.150Z,8.56
2023-04-18T04:42:04.230Z,8.62
2023-04-18T04:43:04.228Z,8.69
2023-04-18T04:44:04.162Z,8.94
2023-04-18T04:45:04.262Z,9.00
2023-04-18T04:46:04.123Z,8.94
2023-04-18T04:47:04.159Z,8.88
2023-04-18T04:48:04.238Z,8.81
2023-04-18T04:49:04.227Z,8.69
2023-04-18T04:50:04.414Z,8.69
2023-04-18T04:51:04.484Z,8.50
2023-04-18T04:52:04.317Z,8.56
2023-04-18T04:53:04.483Z,8.50
2023-04-18T04:54:04.379Z,8.50
2023-04-18T04:55:04.429Z,8.50
2023-04-18T04:56:04.383Z,8.50
2023-04-18T04:57:04.392Z,8.62
2023-04-18T04:58:04.329Z,8.56
2023-04-18T04:59:04.472Z,8.56
2023-04-18T05:00:04.372Z,8.38
2023-04-18T05:01:03.537Z,8.38
2023-04-18T05:02:03.687Z,8.38
2023-04-18T05:03:03.685Z,8.31
2023-04-18T05:04:03.710Z,8.62
2023-04-18T05:05:03.593Z,8.62
2023-04-18T05:06:03.602Z,8.69
2023-04-18T05:07:03.593Z,8.69
2023-04-18T05:08:03.681Z,8.81
2023-04-18T05:09:03.598Z,8.69
2023-04-18T05:10:03.518Z,8.62
2023-04-18T05:11:03.506Z,8.62
2023-04-18T05:12:03.664Z,8.69
2023-04-18T05:13:03.682Z,8.69
2023-04-18T05:14:03.590Z,8.69
2023-04-18T05:15:03.746Z,8.81
2023-04-18T05:16:03.756Z,8.69
2023-04-18T05:17:03.785Z,8.81
2023-04-18T05:18:03.698Z,8.81
2023-04-18T05:19:03.690Z,9.12
2023-04-18T05:20:03.642Z,9.06
2023-04-18T05:21:03.585Z,8.94
2023-04-18T05:22:03.613Z,8.81
2023-04-18T05:23:03.600Z,8.81
2023-04-18T05:24:04.566Z,8.88
2023-04-18T05:25:04.547Z,8.75
2023-04-18T05:26:04.472Z,8.69
2023-04-18T05:27:03.614Z,8.75
2023-04-18T05:28:03.503Z,8.75
2023-04-18T05:29:03.583Z,8.81
2023-04-18T05:30:03.593Z,8.94
2023-04-18T05:31:03.614Z,9.25
2023-04-18T05:32:03.680Z,9.25
2023-04-18T05:33:03.782Z,9.19
2023-04-18T05:34:03.686Z,9.31
2023-04-18T05:35:03.676Z,9.19
2023-04-18T05:36:03.675Z,9.00
2023-04-18T05:37:03.604Z,8.94
2023-04-18T05:38:03.676Z,8.94
2023-04-18T05:39:03.682Z,8.81
2023-04-18T05:40:03.597Z,8.75
2023-04-18T05:41:03.587Z,8.81
2023-04-18T05:42:03.522Z,8.81
2023-04-18T05:43:03.505Z,8.75
2023-04-18T05:44:05.550Z,8.75
2023-04-18T05:45:03.595Z,8.88
2023-04-18T05:46:03.623Z,8.88
2023-04-18T05:47:04.269Z,8.88
2023-04-18T05:48:03.817Z,8.88
2023-04-18T05:49:03.764Z,8.81
2023-04-18T05:50:03.927Z,9.00
2023-04-18T05:51:03.677Z,9.19
2023-04-18T05:52:03.673Z,9.44
2023-04-18T05:53:03.766Z,9.56
2023-04-18T05:54:03.832Z,9.62
2023-04-18T05:55:03.782Z,9.56
2023-04-18T05:56:03.760Z,9.62
2023-04-18T05:57:04.582Z,9.69
2023-04-18T05:58:03.749Z,9.56
2023-04-18T05:59:03.838Z,9.62
2023-04-18T06:00:03.812Z,9.56
2023-04-18T06:01:03.669Z,9.56
2023-04-18T06:02:03.870Z,9.31
2023-04-18T06:03:03.899Z,9.25
2023-04-18T06:04:03.958Z,9.31
2023-04-18T06:05:03.970Z,9.25
2023-04-18T06:06:03.863Z,9.06
2023-04-18T06:07:03.919Z,9.06
2023-04-18T06:08:03.991Z,9.00
2023-04-18T06:09:03.919Z,8.94
2023-04-18T06:10:03.972Z,8.94
2023-04-18T06:11:03.746Z,8.94
2023-04-18T06:12:03.688Z,8.88
2023-04-18T06:13:03.680Z,8.94
2023-04-18T06:14:03.676Z,9.00
2023-04-18T06:15:03.669Z,9.12
2023-04-18T06:16:03.862Z,9.31
2023-04-18T06:17:03.667Z,9.38
2023-04-18T06:18:03.867Z,9.19
2023-04-18T06:19:03.834Z,9.38
2023-04-18T06:20:03.929Z,9.38
2023-04-18T06:21:03.520Z,9.19
2023-04-18T06:22:03.519Z,9.06
2023-04-18T06:23:03.525Z,8.94
2023-04-18T06:24:03.610Z,8.94
2023-04-18T06:25:03.432Z,9.00
2023-04-18T06:26:03.517Z,9.25
2023-04-18T06:27:03.541Z,9.25
2023-04-18T06:28:03.584Z,9.38
2023-04-18T06:29:03.590Z,9.25
2023-04-18T06:30:03.617Z,9.44
2023-04-18T06:31:03.600Z,9.38
2023-04-18T06:32:03.579Z,9.31
2023-04-18T06:33:04.508Z,9.19
2023-04-18T06:34:03.514Z,9.06
2023-04-18T06:35:03.619Z,9.06
2023-04-18T06:36:04.465Z,8.94
2023-04-18T06:37:03.602Z,8.81
2023-04-18T06:38:03.622Z,8.75
2023-04-18T06:39:03.597Z,8.94
2023-04-18T06:40:03.594Z,9.19
2023-04-18T06:41:03.606Z,9.25
2023-04-18T06:42:03.684Z,9.31
2023-04-18T06:43:03.662Z,9.25
2023-04-18T06:44:04.589Z,9.25
2023-04-18T06:45:03.754Z,9.38
2023-04-18T06:46:03.863Z,9.25
2023-04-18T06:47:03.920Z,9.12
2023-04-18T06:48:03.991Z,9.06
2023-04-18T06:49:03.989Z,9.38
2023-04-18T06:50:03.847Z,9.62
2023-04-18T06:51:04.090Z,9.44
2023-04-18T06:52:04.003Z,9.56
2023-04-18T06:53:03.915Z,9.56
2023-04-18T06:54:03.846Z,9.50
2023-04-18T06:55:04.012Z,9.38
2023-04-18T06:56:04.008Z,9.38
2023-04-18T06:57:04.160Z,9.38
2023-04-18T06:58:04.153Z,9.44
2023-04-18T06:59:04.251Z,9.38
2023-04-18T07:00:04.288Z,9.38
2023-04-18T07:01:04.421Z,9.38
2023-04-18T07:02:04.246Z,9.44
2023-04-18T07:03:04.462Z,9.44
2023-04-18T07:04:04.376Z,9.62
2023-04-18T07:05:04.416Z,9.75
2023-04-18T07:06:04.482Z,9.75
2023-04-18T07:07:04.482Z,9.88
2023-04-18T07:08:03.510Z,9.88
2023-04-18T07:09:03.666Z,9.81
2023-04-18T07:10:03.755Z,9.62
2023-04-18T07:11:03.683Z,9.44
2023-04-18T07:12:03.608Z,9.38
2023-04-18T07:13:03.660Z,9.31
2023-04-18T07:14:03.672Z,9.38
2023-04-18T07:15:03.666Z,9.44
2023-04-18T07:16:03.677Z,9.31
2023-04-18T07:17:03.804Z,9.31
2023-04-18T07:18:03.641Z,9.25
2023-04-18T07:19:03.684Z,9.19
2023-04-18T07:20:03.701Z,9.19
2023-04-18T07:21:03.697Z,9.00
2023-04-18T07:22:03.598Z,8.94
2023-04-18T07:23:03.595Z,9.12
2023-04-18T07:24:03.677Z,9.25
2023-04-18T07:25:03.696Z,9.31
2023-04-18T07:26:03.844Z,9.25
2023-04-18T07:27:03.921Z,9.19
2023-04-18T07:28:03.668Z,9.06
2023-04-18T07:29:03.747Z,9.12
2023-04-18T07:30:03.833Z,9.31
2023-04-18T07:31:03.861Z,9.12
2023-04-18T07:32:04.867Z,9.00
2023-04-18T07:33:03.872Z,8.94
2023-04-18T07:34:03.684Z,8.94
2023-04-18T07:35:03.833Z,8.94
2023-04-18T07:36:03.835Z,9.19
2023-04-18T07:37:03.770Z,9.06
2023-04-18T07:38:03.676Z,9.12
2023-04-18T07:39:03.813Z,9.38
2023-04-18T07:40:03.671Z,9.62
2023-04-18T07:41:03.583Z,9.88
2023-04-18T07:42:03.516Z,9.94
2023-04-18T07:43:04.565Z,10.06
2023-04-18T07:44:03.512Z,10.00
2023-04-18T07:45:03.609Z,10.00
2023-04-18T07:46:03.684Z,9.94
2023-04-18T07:47:03.592Z,10.12
2023-04-18T07:48:04.541Z,9.88
2023-04-18T07:49:04.476Z,9.81
2023-04-18T07:50:03.517Z,9.75
2023-04-18T07:51:03.513Z,9.69
2023-04-18T07:52:03.592Z,9.69
2023-04-18T07:53:03.520Z,9.94
2023-04-18T07:54:04.553Z,10.06
2023-04-18T07:55:04.394Z,9.94
2023-04-18T07:56:04.308Z,9.88
2023-04-18T07:57:04.490Z,9.88
2023-04-18T07:58:04.485Z,9.69
2023-04-18T07:59:04.321Z,9.62
2023-04-18T08:00:04.309Z,9.62
2023-04-18T08:01:04.322Z,9.25
2023-04-18T08:02:04.328Z,9.25
2023-04-18T08:03:04.402Z,9.75
2023-04-18T08:04:04.532Z,9.75
2023-04-18T08:05:04.422Z,9.75
2023-04-18T08:06:04.392Z,9.81
2023-04-18T08:07:04.406Z,9.56
2023-04-18T08:08:04.383Z,9.38
2023-04-18T08:09:04.319Z,9.56
2023-04-18T08:10:04.500Z,9.50
2023-04-18T08:11:04.488Z,9.50
2023-04-18T08:12:04.477Z,9.38
2023-04-18T08:13:04.307Z,9.25
2023-04-18T08:14:04.424Z,9.31
2023-04-18T08:15:04.490Z,9.19
2023-04-18T08:16:04.427Z,9.44
2023-04-18T08:17:04.480Z,9.56
2023-04-18T08:18:04.519Z,9.38
2023-04-18T08:19:04.478Z,9.38
2023-04-18T08:20:04.309Z,9.44
2023-04-18T08:21:04.475Z,9.69
2023-04-18T08:22:04.390Z,9.69
2023-04-18T08:23:07.844Z,9.62
2023-04-18T08:24:04.305Z,9.69
2023-04-18T08:25:05.643Z,9.81
2023-04-18T08:26:04.231Z,10.06
2023-04-18T08:27:04.314Z,10.00
2023-04-18T08:28:04.458Z,9.94
2023-04-18T08:29:04.236Z,9.94
2023-04-18T08:30:04.313Z,9.81
2023-04-18T08:31:04.410Z,9.75
2023-04-18T08:32:04.539Z,9.62
2023-04-18T08:33:04.423Z,9.50
2023-04-18T08:34:05.018Z,9.38
2023-04-18T08:35:03.525Z,9.31
2023-04-18T08:36:03.599Z,9.31
2023-04-18T08:37:03.599Z,9.50
2023-04-18T08:38:03.592Z,9.44
2023-04-18T08:39:03.514Z,9.31
2023-04-18T08:40:03.530Z,9.31
2023-04-18T08:41:03.534Z,9.31
2023-04-18T08:42:04.391Z,9.50
2023-04-18T08:43:03.521Z,9.69
2023-04-18T08:44:03.512Z,9.56
2023-04-18T08:45:03.510Z,9.62
2023-04-18T08:46:03.639Z,9.75
2023-04-18T08:47:03.678Z,9.69
2023-04-18T08:48:04.071Z,9.88
2023-04-18T08:49:03.776Z,10.00
2023-04-18T08:50:03.789Z,10.06
2023-04-18T08:51:03.755Z,10.06
2023-04-18T08:52:03.755Z,10.19
2023-04-18T08:53:03.666Z,10.25
2023-04-18T08:54:03.661Z,10.25
2023-04-18T08:55:03.757Z,10.19
2023-04-18T08:56:03.669Z,10.12
2023-04-18T08:57:03.746Z,10.25
2023-04-18T08:58:03.594Z,10.44
2023-04-18T08:59:03.581Z,10.38
2023-04-18T09:00:03.638Z,10.19
2023-04-18T09:01:03.770Z,10.19
2023-04-18T09:02:03.923Z,10.12
2023-04-18T09:03:04.230Z,10.25
2023-04-18T09:04:03.855Z,10.19
2023-04-18T09:05:03.916Z,10.19
2023-04-18T09:06:03.910Z,10.19
2023-04-18T09:07:03.995Z,10.25
2023-04-18T09:08:03.940Z,10.38
2023-04-18T09:09:03.922Z,10.50
2023-04-18T09:10:03.849Z,10.81
2023-04-18T09:11:03.833Z,10.75
2023-04-18T09:12:03.932Z,10.75
2023-04-18T09:13:03.998Z,10.81
2023-04-18T09:14:03.931Z,10.94
2023-04-18T09:15:03.917Z,10.81
2023-04-18T09:16:03.841Z,10.81
2023-04-18T09:17:03.966Z,10.75
2023-04-18T09:18:04.044Z,10.75
2023-04-18T09:19:05.767Z,10.50
2023-04-18T09:20:03.925Z,10.38
2023-04-18T09:21:03.825Z,10.25
2023-04-18T09:22:03.836Z,10.06
2023-04-18T09:23:03.856Z,9.94
2023-04-18T09:24:03.917Z,9.81
2023-04-18T09:25:03.828Z,9.75
2023-04-18T09:26:03.830Z,9.62
2023-04-18T09:27:03.837Z,9.75
2023-04-18T09:28:03.758Z,9.75
2023-04-18T09:29:03.831Z,9.62
2023-04-18T09:30:03.990Z,9.62
2023-04-18T09:31:04.000Z,9.69
2023-04-18T09:32:03.874Z,9.56
2023-04-18T09:33:03.938Z,9.56
2023-04-18T09:34:03.827Z,9.56
2023-04-18T09:35:04.731Z,9.62
2023-04-18T09:36:03.755Z,9.69
2023-04-18T09:37:03.861Z,9.62
2023-04-18T09:38:03.942Z,9.62
2023-04-18T09:39:03.925Z,9.56
2023-04-18T09:40:04.232Z,9.62
2023-04-18T09:41:04.385Z,9.81
2023-04-18T09:42:04.322Z,9.88
2023-04-18T09:43:04.392Z,9.75
2023-04-18T09:44:04.386Z,9.69
2023-04-18T09:45:04.488Z,9.75
2023-04-18T09:46:04.501Z,9.69
2023-04-18T09:47:04.307Z,9.75
2023-04-18T09:48:04.337Z,9.69
2023-04-18T09:49:04.228Z,9.69
2023-04-18T09:50:04.325Z,9.56
2023-04-18T09:51:04.250Z,9.44
2023-04-18T09:52:04.159Z,9.50
2023-04-18T09:53:04.249Z,9.56
2023-04-18T09:54:04.320Z,9.56
2023-04-18T09:55:04.474Z,9.75
2023-04-18T09:56:04.410Z,9.69
2023-04-18T09:57:04.311Z,9.69
2023-04-18T09:58:03.514Z,9.69
2023-04-18T09:59:03.575Z,9.62
2023-04-18T10:00:03.614Z,9.56
2023-04-18T10:01:03.547Z,9.50
2023-04-18T10:02:03.739Z,9.50
2023-04-18T10:03:03.736Z,9.62
2023-04-18T10:04:03.770Z,9.81
2023-04-18T10:05:03.769Z,9.75
2023-04-18T10:06:03.681Z,9.75
2023-04-18T10:07:03.692Z,9.75
2023-04-18T10:08:03.684Z,9.75
2023-04-18T10:09:03.690Z,9.56
2023-04-18T10:10:03.677Z,9.50
2023-04-18T10:11:03.672Z,9.44
2023-04-18T10:12:03.649Z,9.50
2023-04-18T10:13:03.680Z,9.44
2023-04-18T10:14:03.753Z,9.44
2023-04-18T10:15:03.679Z,9.50
2023-04-18T10:16:03.775Z,9.62
2023-04-18T10:17:03.693Z,9.56
2023-04-18T10:18:05.970Z,9.62
2023-04-18T10:19:03.749Z,9.56
2023-04-18T10:20:03.892Z,9.56
2023-04-18T10:21:03.754Z,9.88
2023-04-18T10:22:03.828Z,9.88
2023-04-18T10:23:03.823Z,9.75
2023-04-18T10:24:03.958Z,9.75
2023-04-18T10:25:03.776Z,9.81
2023-04-18T10:26:03.681Z,9.69
2023-04-18T10:27:03.744Z,9.75
2023-04-18T10:28:03.674Z,10.00
2023-04-18T10:29:03.583Z,10.00
2023-04-18T10:30:03.683Z,9.88
2023-04-18T10:31:03.713Z,9.75
2023-04-18T10:32:03.536Z,9.88
2023-04-18T10:33:03.550Z,9.94
2023-04-18T10:34:05.502Z,9.94
2023-04-18T10:35:04.459Z,9.88
2023-04-18T10:36:04.592Z,9.75
2023-04-18T10:37:04.507Z,9.62
2023-04-18T10:38:03.551Z,9.56
2023-04-18T10:39:03.707Z,9.50
2023-04-18T10:40:03.690Z,9.56
2023-04-18T10:41:03.596Z,9.50
2023-04-18T10:42:03.677Z,9.50
2023-04-18T10:43:03.678Z,9.44
2023-04-18T10:44:03.822Z,9.56
2023-04-18T10:45:03.760Z,9.62
2023-04-18T10:46:03.673Z,9.75
2023-04-18T10:47:03.886Z,9.69
2023-04-18T10:48:03.688Z,9.69
2023-04-18T10:49:03.681Z,9.62
2023-04-18T10:50:06.056Z,9.62
2023-04-18T10:51:03.752Z,9.88
2023-04-18T10:52:03.833Z,10.00
2023-04-18T10:53:03.909Z,10.00
2023-04-18T10:54:03.818Z,10.12
2023-04-18T10:55:03.904Z,10.12
2023-04-18T10:56:04.077Z,10.12
2023-04-18T10:57:04.080Z,10.06
2023-04-18T10:58:04.163Z,9.94
2023-04-18T10:59:04.085Z,10.00
2023-04-18T11:00:04.076Z,10.00
2023-04-18T11:01:04.121Z,10.25
2023-04-18T11:02:03.951Z,10.19
2023-04-18T11:03:04.207Z,10.25
2023-04-18T11:04:04.044Z,10.06
2023-04-18T11:05:04.151Z,9.94
2023-04-18T11:06:04.301Z,10.12
2023-04-18T11:07:04.242Z,10.38
2023-04-18T11:08:04.146Z,10.31
2023-04-18T11:09:04.249Z,10.19
2023-04-18T11:10:04.227Z,10.06
2023-04-18T11:11:04.386Z,10.00
2023-04-18T11:12:04.403Z,9.88
2023-04-18T11:13:04.765Z,10.06
2023-04-18T11:14:03.509Z,10.12
2023-04-18T11:15:03.608Z,10.25
2023-04-18T11:16:03.659Z,10.44
2023-04-18T11:17:03.600Z,10.31
2023-04-18T11:18:03.719Z,10.44
2023-04-18T11:19:03.678Z,10.38
2023-04-18T11:20:03.521Z,10.44
2023-04-18T11:21:03.531Z,10.31
2023-04-18T11:22:03.512Z,10.38
2023-04-18T11:23:03.676Z,10.56
2023-04-18T11:24:03.597Z,10.50
2023-04-18T11:25:03.585Z,10.38
2023-04-18T11:26:03.588Z,10.19
2023-04-18T11:27:03.513Z,10.06
2023-04-18T11:28:03.599Z,10.06
2023-04-18T11:29:03.794Z,10.00
2023-04-18T11:30:04.120Z,10.00
2023-04-18T11:31:03.611Z,10.12
2023-04-18T11:32:03.823Z,10.06
2023-04-18T11:33:03.802Z,10.00
2023-04-18T11:34:03.746Z,9.94
2023-04-18T11:35:03.760Z,10.00
2023-04-18T11:36:03.833Z,9.94
2023-04-18T11:37:03.840Z,9.94
2023-04-18T11:38:04.071Z,10.00
2023-04-18T11:39:03.973Z,10.19
2023-04-18T11:40:04.003Z,10.25
2023-04-18T11:41:04.067Z,10.50
2023-04-18T11:42:04.227Z,10.50
2023-04-18T11:43:04.330Z,10.56
2023-04-18T11:44:05.196Z,10.56
2023-04-18T11:45:04.398Z,10.56
2023-04-18T11:46:04.446Z,10.56
2023-04-18T11:47:03.846Z,10.56
2023-04-18T11:48:03.787Z,10.50
2023-04-18T11:49:03.757Z,10.81
2023-04-18T11:50:03.828Z,11.12
2023-04-18T11:51:03.998Z,11.06
2023-04-18T11:52:03.910Z,10.88
2023-04-18T11:53:04.069Z,10.69
2023-04-18T11:54:04.295Z,11.00
2023-04-18T11:55:04.167Z,10.81
2023-04-18T11:56:04.320Z,10.88
2023-04-18T11:57:04.408Z,11.06
2023-04-18T11:58:04.503Z,11.56
2023-04-18T11:59:03.542Z,11.62
2023-04-18T12:00:03.589Z,11.69
2023-04-18T12:01:03.537Z,11.62
2023-04-18T12:02:15.200Z,11.69
2023-04-18T12:03:03.674Z,11.50
2023-04-18T12:04:03.992Z,11.44
2023-04-18T12:05:03.810Z,11.38
2023-04-18T12:06:03.808Z,11.56
2023-04-18T12:07:03.750Z,11.31
2023-04-18T12:08:03.759Z,11.25
2023-04-18T12:09:03.758Z,11.12
2023-04-18T12:10:03.953Z,11.06
2023-04-18T12:11:03.912Z,11.06
2023-04-18T12:12:04.017Z,11.12
2023-04-18T12:13:04.081Z,11.12
2023-04-18T12:14:04.221Z,11.19
2023-04-18T12:15:04.009Z,11.38
2023-04-18T12:16:04.019Z,11.25
2023-04-18T12:17:05.045Z,11.38
2023-04-18T12:18:04.200Z,11.44
2023-04-18T12:19:04.163Z,11.62
2023-04-18T12:20:04.234Z,11.44
2023-04-18T12:21:04.159Z,11.31
2023-04-18T12:22:04.236Z,11.31
2023-04-18T12:23:04.464Z,11.31
2023-04-18T12:24:04.252Z,11.38
2023-04-18T12:25:04.250Z,11.38
2023-04-18T12:26:04.366Z,11.44
2023-04-18T12:27:04.387Z,11.44
2023-04-18T12:28:03.529Z,11.38
2023-04-18T12:29:03.686Z,11.44
2023-04-18T12:30:03.589Z,11.38
2023-04-18T12:31:03.564Z,11.31
2023-04-18T12:32:03.557Z,11.31
2023-04-18T12:33:03.647Z,11.38
2023-04-18T12:34:03.525Z,11.69
2023-04-18T12:35:03.501Z,11.88
2023-04-18T12:36:03.509Z,11.88
2023-04-18T12:37:03.592Z,11.75
2023-04-18T12:38:03.512Z,11.56
2023-04-18T12:39:04.789Z,11.56
2023-04-18T12:40:03.980Z,11.44
2023-04-18T12:41:03.990Z,11.31
2023-04-18T12:42:04.067Z,11.25
2023-04-18T12:43:04.120Z,11.25
2023-04-18T12:44:03.991Z,11.44
2023-04-18T12:45:04.140Z,11.56
2023-04-18T12:46:04.231Z,11.56
2023-04-18T12:47:04.054Z,11.62
2023-04-18T12:48:03.940Z,11.62
2023-04-18T12:49:03.991Z,11.44
2023-04-18T12:50:03.980Z,11.50
2023-04-18T12:51:04.005Z,11.50
2023-04-18T12:52:03.999Z,11.50
2023-04-18T12:53:04.074Z,11.44
2023-04-18T12:54:04.140Z,11.56
2023-04-18T12:55:04.016Z,11.50
2023-04-18T12:56:03.988Z,11.44
2023-04-18T12:57:03.998Z,11.38
2023-04-18T12:58:04.068Z,11.38
2023-04-18T12:59:03.995Z,11.25
2023-04-18T13:00:04.016Z,11.12
2023-04-18T13:01:04.048Z,11.06
2023-04-18T13:02:04.086Z,11.12
2023-04-18T13:03:04.196Z,11.06
2023-04-18T13:04:12.151Z,11.06
2023-04-18T13:05:04.017Z,11.00
2023-04-18T13:06:04.015Z,11.00
2023-04-18T13:07:03.992Z,11.00
2023-04-18T13:08:15.992Z,11.00
2023-04-18T13:09:03.836Z,11.00
2023-04-18T13:10:03.928Z,11.00
2023-04-18T13:11:03.831Z,11.00
2023-04-18T13:12:04.002Z,10.94